« Back
NWS Peachtree City, Ga » Text Product » MCN Terminal Aerodrome Forecast


Printer-friendly Version
Current Version              Previous Versions:   1  2  3  4  5  6  7  8  9  

Terminal Aerodrome Forecast

727
FTUS42 KFFC 241100
TAFMCN
TAF
KMCN 241123Z 2412/2512 00000KT P6SM SCT250
     FM241600 VRB03KT P6SM SCT200
     FM250000 00000KT P6SM SKC=



USA.gov is the U.S. government's official web portal to all federal, state and local government web resources and services.